createdAt,value
2022-11-15T00:01:11.664Z,40.00
2022-11-15T00:03:39.127Z,40.17
2022-11-15T00:06:07.926Z,40.13
2022-11-15T00:08:35.527Z,39.67
2022-11-15T00:11:04.835Z,42.60
2022-11-15T00:13:32.693Z,41.50
2022-11-15T00:16:01.606Z,41.10
2022-11-15T00:18:29.626Z,37.80
2022-11-15T00:20:57.781Z,36.40
2022-11-15T00:23:26.506Z,37.37
2022-11-15T00:26:00.462Z,42.23
2022-11-15T00:28:28.509Z,38.40
2022-11-15T00:30:56.164Z,41.07
2022-11-15T00:33:23.757Z,41.20
2022-11-15T00:35:51.196Z,39.83
2022-11-15T00:38:18.694Z,40.17
2022-11-15T00:40:47.500Z,41.30
2022-11-15T00:43:15.101Z,41.03
2022-11-15T00:45:42.852Z,40.80
2022-11-15T00:48:11.673Z,40.07
2022-11-15T00:50:39.144Z,41.40
2022-11-15T00:53:06.579Z,41.43
2022-11-15T00:55:34.110Z,40.97
2022-11-15T00:58:02.849Z,41.40
2022-11-15T01:00:30.530Z,41.40
2022-11-15T01:02:58.085Z,39.67
2022-11-15T01:05:25.796Z,39.23
2022-11-15T01:07:53.910Z,42.57
2022-11-15T01:10:21.637Z,41.03
2022-11-15T01:12:49.290Z,40.63
2022-11-15T01:15:18.335Z,41.47
2022-11-15T01:17:45.772Z,42.20
2022-11-15T01:20:13.853Z,42.37
2022-11-15T01:22:41.327Z,42.60
2022-11-15T01:25:08.744Z,40.17
2022-11-15T01:27:36.185Z,41.30
2022-11-15T01:30:03.745Z,42.63
2022-11-15T01:32:32.533Z,39.47
2022-11-15T01:34:59.936Z,40.63
2022-11-15T01:37:27.375Z,40.63
2022-11-15T01:39:54.808Z,42.10
2022-11-15T01:42:22.219Z,43.10
2022-11-15T01:44:51.479Z,41.77
2022-11-15T01:47:22.131Z,41.53
2022-11-15T01:49:57.181Z,39.57
2022-11-15T01:52:27.238Z,41.60
2022-11-15T01:54:58.349Z,42.77
2022-11-15T01:57:25.961Z,41.10
2022-11-15T01:59:53.347Z,41.50
2022-11-15T02:02:20.755Z,38.77
2022-11-15T02:04:49.344Z,42.03
2022-11-15T02:07:19.807Z,41.63
2022-11-15T02:09:47.918Z,40.70
2022-11-15T02:12:18.337Z,39.63
2022-11-15T02:14:50.144Z,42.03
2022-11-15T02:17:33.380Z,41.63
2022-11-15T02:20:30.990Z,41.10
2022-11-15T02:23:16.046Z,41.93
2022-11-15T02:25:58.990Z,40.47
2022-11-15T02:28:46.603Z,40.70
2022-11-15T02:31:27.215Z,40.73
2022-11-15T02:34:00.530Z,39.87
2022-11-15T02:36:37.682Z,41.20
2022-11-15T02:39:12.222Z,41.63
2022-11-15T02:41:47.827Z,40.93
2022-11-15T02:44:22.589Z,40.50
2022-11-15T02:47:12.519Z,43.20
2022-11-15T02:49:42.695Z,40.63
2022-11-15T02:52:10.111Z,40.90
2022-11-15T02:54:37.658Z,38.90
2022-11-15T02:57:09.020Z,40.03
2022-11-15T02:59:59.959Z,38.17
2022-11-15T03:02:44.754Z,39.90
2022-11-15T03:05:21.224Z,41.33
2022-11-15T03:08:01.866Z,40.33
2022-11-15T03:10:37.939Z,41.00
2022-11-15T03:13:14.035Z,42.30
2022-11-15T03:15:49.535Z,43.07
2022-11-15T03:18:23.422Z,40.47
2022-11-15T03:20:52.337Z,40.67
2022-11-15T03:23:19.920Z,40.93
2022-11-15T03:25:50.756Z,38.87
2022-11-15T03:28:24.411Z,37.30
2022-11-15T03:30:54.096Z,39.97
2022-11-15T03:33:23.975Z,39.97
2022-11-15T03:35:53.212Z,39.40
2022-11-15T03:38:25.358Z,38.10
2022-11-15T03:41:02.016Z,40.70
2022-11-15T03:43:34.774Z,44.43
2022-11-15T03:46:06.447Z,42.87
2022-11-15T03:48:42.110Z,39.67
2022-11-15T03:51:09.977Z,42.23
2022-11-15T03:53:37.545Z,42.20
2022-11-15T03:56:05.279Z,37.93
2022-11-15T03:58:32.728Z,40.40
2022-11-15T04:01:00.450Z,41.60
2022-11-15T04:03:28.323Z,39.43
2022-11-15T04:05:57.215Z,37.07
2022-11-15T04:08:24.644Z,40.47
2022-11-15T04:10:52.096Z,36.40
2022-11-15T04:13:19.539Z,40.60
2022-11-15T04:15:47.009Z,37.47
2022-11-15T04:18:14.420Z,40.63
2022-11-15T04:20:59.230Z,41.00
2022-11-15T04:23:45.789Z,41.60
2022-11-15T04:26:16.462Z,41.27
2022-11-15T04:28:57.930Z,40.77
2022-11-15T04:31:25.317Z,39.70
2022-11-15T04:33:52.858Z,40.03
2022-11-15T04:36:38.402Z,38.13
2022-11-15T04:39:07.416Z,40.77
2022-11-15T04:41:35.064Z,40.47
2022-11-15T04:44:02.544Z,39.90
2022-11-15T04:46:30.116Z,36.23
2022-11-15T04:48:59.269Z,37.70
2022-11-15T04:51:26.981Z,40.00
2022-11-15T04:53:54.609Z,39.43
2022-11-15T04:56:23.324Z,39.67
2022-11-15T04:58:50.813Z,39.57
2022-11-15T05:01:18.777Z,38.70
2022-11-15T05:04:04.263Z,39.73
2022-11-15T05:06:32.273Z,37.93
2022-11-15T05:09:00.259Z,39.63
2022-11-15T05:11:29.141Z,39.40
2022-11-15T05:13:57.011Z,39.60
2022-11-15T05:16:24.469Z,40.50
2022-11-15T05:18:53.256Z,39.93
2022-11-15T05:21:22.369Z,39.03
2022-11-15T05:23:49.883Z,38.80
2022-11-15T05:26:19.009Z,39.20
2022-11-15T05:28:47.747Z,39.43
2022-11-15T05:31:17.475Z,39.17
2022-11-15T05:33:46.060Z,38.77
2022-11-15T05:36:18.955Z,38.47
2022-11-15T05:38:47.438Z,39.03
2022-11-15T05:41:16.073Z,39.73
2022-11-15T05:43:45.378Z,37.73
2022-11-15T05:46:15.628Z,38.27
2022-11-15T05:48:47.177Z,37.50
2022-11-15T05:51:17.319Z,36.73
2022-11-15T05:53:45.372Z,38.07
2022-11-15T05:56:13.638Z,38.47
2022-11-15T05:58:41.089Z,39.87
2022-11-15T06:01:08.606Z,38.73
2022-11-15T06:03:37.324Z,36.30
2022-11-15T06:06:05.024Z,39.93
2022-11-15T06:08:32.477Z,37.53
2022-11-15T06:11:05.594Z,38.57
2022-11-15T06:13:33.807Z,36.20
2022-11-15T06:16:01.814Z,36.57
2022-11-15T06:18:29.221Z,36.33
2022-11-15T06:21:01.647Z,38.23
2022-11-15T06:23:29.546Z,38.33
2022-11-15T06:25:59.900Z,36.53
2022-11-15T06:28:30.055Z,40.07
2022-11-15T06:30:57.988Z,39.60
2022-11-15T06:33:25.455Z,40.20
2022-11-15T06:35:52.891Z,39.20
2022-11-15T06:38:21.938Z,40.23
2022-11-15T06:40:49.366Z,36.80
2022-11-15T06:43:17.718Z,41.57
2022-11-15T06:45:45.111Z,36.73
2022-11-15T06:48:12.535Z,39.33
2022-11-15T06:50:39.930Z,39.87
2022-11-15T06:53:07.336Z,40.27
2022-11-15T06:55:36.095Z,40.47
2022-11-15T06:58:03.562Z,35.47
2022-11-15T07:00:30.988Z,39.93
2022-11-15T07:03:01.823Z,37.93
2022-11-15T07:05:29.436Z,39.20
2022-11-15T07:07:58.142Z,39.13
2022-11-15T07:10:26.482Z,40.07
2022-11-15T07:12:56.207Z,38.97
2022-11-15T07:15:26.140Z,38.33
2022-11-15T07:17:53.738Z,38.93
2022-11-15T07:20:21.179Z,40.27
2022-11-15T07:22:48.579Z,38.47
2022-11-15T07:25:16.004Z,40.73
2022-11-15T07:27:43.570Z,36.63
2022-11-15T07:30:15.649Z,39.10
2022-11-15T07:32:43.308Z,34.57
2022-11-15T07:35:10.781Z,35.50
2022-11-15T07:37:38.169Z,35.27
2022-11-15T07:40:06.396Z,34.47
2022-11-15T07:42:51.429Z,35.30
2022-11-15T07:45:20.370Z,38.17
2022-11-15T07:47:48.142Z,38.40
2022-11-15T07:50:15.761Z,33.03
2022-11-15T07:52:43.178Z,36.30
2022-11-15T07:55:10.935Z,35.60
2022-11-15T07:57:38.470Z,34.73
2022-11-15T08:00:07.957Z,34.87
2022-11-15T08:02:36.773Z,37.17
2022-11-15T08:05:04.937Z,33.73
2022-11-15T08:07:33.146Z,36.40
2022-11-15T08:10:02.107Z,35.87
2022-11-15T08:12:30.538Z,36.83
2022-11-15T08:14:57.992Z,36.37
2022-11-15T08:17:26.335Z,35.97
2022-11-15T08:19:55.609Z,36.20
2022-11-15T08:22:23.047Z,35.23
2022-11-15T08:24:50.522Z,35.57
2022-11-15T08:27:18.011Z,36.97
2022-11-15T08:29:46.404Z,36.00
2022-11-15T08:32:13.910Z,34.07
2022-11-15T08:34:41.376Z,34.57
2022-11-15T08:37:10.092Z,34.13
2022-11-15T08:39:37.506Z,34.87
2022-11-15T08:42:05.226Z,33.57
2022-11-15T08:44:32.650Z,34.77
2022-11-15T08:47:00.020Z,35.30
2022-11-15T08:49:27.474Z,33.77
2022-11-15T08:51:54.861Z,30.47
2022-11-15T08:54:23.653Z,31.30
2022-11-15T08:56:51.106Z,33.40
2022-11-15T08:59:18.472Z,32.53
2022-11-15T09:01:45.959Z,32.40
2022-11-15T09:04:13.425Z,29.87
2022-11-15T09:06:43.170Z,12.63
2022-11-15T09:09:13.213Z,29.00
2022-11-15T09:11:42.020Z,19.33
2022-11-15T09:14:09.726Z,25.17
2022-11-15T09:16:37.144Z,20.37
2022-11-15T09:19:10.414Z,16.47
2022-11-15T09:21:39.135Z,20.47
2022-11-15T09:24:07.080Z,22.53
2022-11-15T09:26:34.553Z,18.50
2022-11-15T09:29:03.468Z,20.60
2022-11-15T09:31:31.355Z,19.93
2022-11-15T09:33:58.777Z,21.70
2022-11-15T09:36:26.703Z,20.70
2022-11-15T09:38:54.131Z,18.73
2022-11-15T09:41:52.421Z,20.03
2022-11-15T09:44:44.704Z,21.13
2022-11-15T09:47:34.108Z,19.07
2022-11-15T09:50:03.966Z,18.10
2022-11-15T09:52:31.338Z,22.73
2022-11-15T09:54:58.812Z,22.43
2022-11-15T09:57:33.393Z,26.73
2022-11-15T10:00:43.835Z,25.80
2022-11-15T10:03:09.889Z,25.77
2022-11-15T10:05:40.584Z,26.13
2022-11-15T10:08:23.179Z,25.13
2022-11-15T10:11:15.780Z,25.00
2022-11-15T10:13:44.958Z,22.60
2022-11-15T10:16:48.525Z,24.53
2022-11-15T10:19:25.687Z,24.87
2022-11-15T10:22:02.504Z,22.43
2022-11-15T10:24:35.707Z,23.50
2022-11-15T10:27:03.404Z,23.63
2022-11-15T10:29:30.855Z,23.07
2022-11-15T10:31:58.267Z,22.67
2022-11-15T10:34:28.085Z,22.10
2022-11-15T10:37:01.198Z,22.03
2022-11-15T10:39:28.770Z,22.27
2022-11-15T10:41:56.286Z,21.10
2022-11-15T10:44:30.502Z,21.60
2022-11-15T10:47:39.477Z,21.93
2022-11-15T10:50:28.847Z,20.00
2022-11-15T10:52:56.646Z,21.20
2022-11-15T10:55:28.140Z,20.50
2022-11-15T10:57:58.058Z,20.40
2022-11-15T11:00:34.807Z,20.10
2022-11-15T11:03:04.783Z,22.47
2022-11-15T11:05:41.298Z,19.80
2022-11-15T11:08:24.369Z,20.33
2022-11-15T11:11:01.427Z,18.20
2022-11-15T11:13:31.905Z,19.60
2022-11-15T11:16:11.507Z,20.60
2022-11-15T11:18:51.623Z,19.77
2022-11-15T11:21:33.010Z,18.73
2022-11-15T11:24:10.215Z,18.43
2022-11-15T11:26:45.459Z,19.83
2022-11-15T11:29:28.010Z,19.13
2022-11-15T11:32:03.825Z,18.90
2022-11-15T11:34:44.938Z,19.40
2022-11-15T11:37:19.748Z,19.93
2022-11-15T11:39:58.627Z,20.37
2022-11-15T11:42:34.396Z,19.67
2022-11-15T11:45:13.596Z,19.57
2022-11-15T11:47:42.401Z,19.43
2022-11-15T11:50:15.914Z,19.57
2022-11-15T11:52:53.656Z,19.13
2022-11-15T11:55:25.078Z,26.17
2022-11-15T11:58:00.833Z,21.67
2022-11-15T12:00:29.504Z,19.53
2022-11-15T12:03:08.066Z,17.80
2022-11-15T12:05:38.980Z,19.00
2022-11-15T12:08:24.598Z,18.57
2022-11-15T12:10:59.598Z,18.20
2022-11-15T12:13:34.356Z,19.17
2022-11-15T12:16:10.473Z,18.77
2022-11-15T12:18:39.313Z,18.33
2022-11-15T12:21:28.155Z,19.00
2022-11-15T12:24:05.251Z,18.10
2022-11-15T12:26:38.459Z,17.57
2022-11-15T12:29:14.707Z,19.33
2022-11-15T12:31:45.789Z,19.63
2022-11-15T12:34:36.938Z,17.50
2022-11-15T12:37:56.075Z,19.60
2022-11-15T12:40:36.623Z,19.13
2022-11-15T12:43:21.322Z,19.10
2022-11-15T12:45:48.774Z,19.30
2022-11-15T12:48:59.050Z,19.70
2022-11-15T12:52:09.269Z,18.17
2022-11-15T12:54:55.052Z,19.57
2022-11-15T12:57:42.628Z,18.87
2022-11-15T13:00:39.239Z,19.23
2022-11-15T13:03:26.979Z,19.17
2022-11-15T13:06:00.598Z,18.77
2022-11-15T13:08:44.821Z,17.73
2022-11-15T13:11:49.831Z,18.57
2022-11-15T13:14:50.745Z,18.23
2022-11-15T13:17:44.403Z,17.93
2022-11-15T13:20:27.876Z,17.43
2022-11-15T13:23:03.259Z,18.37
2022-11-15T13:25:49.849Z,17.27
2022-11-15T13:28:26.430Z,19.10
2022-11-15T13:30:58.050Z,19.20
2022-11-15T13:33:35.551Z,19.10
2022-11-15T13:36:06.035Z,19.27
2022-11-15T13:38:35.988Z,20.03
2022-11-15T13:41:16.242Z,20.33
2022-11-15T13:43:43.704Z,21.07
2022-11-15T13:46:19.198Z,18.83
2022-11-15T13:48:48.157Z,18.83
2022-11-15T13:51:22.659Z,19.57
2022-11-15T13:53:54.725Z,22.37
2022-11-15T13:56:23.005Z,20.40
2022-11-15T13:58:50.672Z,19.53
2022-11-15T14:01:22.302Z,19.50
2022-11-15T14:03:53.776Z,19.70
2022-11-15T14:06:23.590Z,20.43
2022-11-15T14:09:04.388Z,21.60
2022-11-15T14:11:32.719Z,19.87
2022-11-15T14:14:16.578Z,19.10
2022-11-15T14:16:47.316Z,18.50
2022-11-15T14:19:36.230Z,21.00
2022-11-15T14:22:11.188Z,19.70
2022-11-15T14:24:39.584Z,20.20
2022-11-15T14:27:25.482Z,20.60
2022-11-15T14:29:53.553Z,21.13
2022-11-15T14:32:24.223Z,19.37
2022-11-15T14:34:56.712Z,19.10
2022-11-15T14:37:26.901Z,19.10
2022-11-15T14:39:55.236Z,18.80
2022-11-15T14:42:24.051Z,19.63
2022-11-15T14:44:52.160Z,17.20
2022-11-15T14:47:19.638Z,19.23
2022-11-15T14:49:48.520Z,18.80
2022-11-15T14:52:31.758Z,17.37
2022-11-15T14:55:00.290Z,17.47
2022-11-15T14:57:27.787Z,18.47
2022-11-15T14:59:56.271Z,19.07
2022-11-15T15:02:25.698Z,19.20
2022-11-15T15:04:55.088Z,18.73
2022-11-15T15:07:22.695Z,20.00
2022-11-15T15:09:50.220Z,20.53
2022-11-15T15:12:20.511Z,17.63
2022-11-15T15:14:49.207Z,19.87
2022-11-15T15:17:16.860Z,19.80
2022-11-15T15:19:44.645Z,21.23
2022-11-15T15:22:17.083Z,19.90
2022-11-15T15:24:44.866Z,20.07
2022-11-15T15:27:12.755Z,24.27
2022-11-15T15:29:40.346Z,22.20
2022-11-15T15:32:08.060Z,20.40
2022-11-15T15:34:35.587Z,21.37
2022-11-15T15:37:10.714Z,21.27
2022-11-15T15:39:40.117Z,20.80
2022-11-15T15:42:07.560Z,19.17
2022-11-15T15:44:34.975Z,20.47
2022-11-15T15:47:02.387Z,20.43
2022-11-15T15:49:29.862Z,21.00
2022-11-15T15:51:57.287Z,20.27
2022-11-15T15:54:24.720Z,20.30
2022-11-15T15:56:56.159Z,20.63
2022-11-15T15:59:23.855Z,19.93
2022-11-15T16:01:51.270Z,24.40
2022-11-15T16:04:18.752Z,21.23
2022-11-15T16:06:46.367Z,21.47
2022-11-15T16:09:17.358Z,23.70
2022-11-15T16:11:47.389Z,23.20
2022-11-15T16:14:16.154Z,22.93
2022-11-15T16:16:43.594Z,22.17
2022-11-15T16:19:12.936Z,24.23
2022-11-15T16:21:40.342Z,23.37
2022-11-15T16:24:07.818Z,27.47
2022-11-15T16:26:37.696Z,26.83
2022-11-15T16:29:05.137Z,26.13
2022-11-15T16:31:33.834Z,25.20
2022-11-15T16:34:01.391Z,23.00
2022-11-15T16:36:31.264Z,23.47
2022-11-15T16:38:59.358Z,24.30
2022-11-15T16:41:27.688Z,23.60
2022-11-15T16:43:55.139Z,22.57
2022-11-15T16:46:24.224Z,24.87
2022-11-15T16:48:54.178Z,24.90
2022-11-15T16:51:22.083Z,24.17
2022-11-15T16:53:50.041Z,26.23
2022-11-15T16:56:23.450Z,25.43
2022-11-15T16:58:50.937Z,25.30
2022-11-15T17:01:20.988Z,25.37
2022-11-15T17:03:48.531Z,26.20
2022-11-15T17:06:18.840Z,26.47
2022-11-15T17:08:47.169Z,27.30
2022-11-15T17:11:17.189Z,27.63
2022-11-15T17:13:45.673Z,29.07
2022-11-15T17:16:15.046Z,30.40
2022-11-15T17:18:45.569Z,32.43
2022-11-15T17:21:15.539Z,32.87
2022-11-15T17:23:44.715Z,34.00
2022-11-15T17:26:32.214Z,34.73
2022-11-15T17:29:02.373Z,33.97
2022-11-15T17:31:31.203Z,30.90
2022-11-15T17:33:58.714Z,32.50
2022-11-15T17:36:26.110Z,34.17
2022-11-15T17:38:59.238Z,35.90
2022-11-15T17:41:27.426Z,35.07
2022-11-15T17:43:57.911Z,34.97
2022-11-15T17:46:25.615Z,38.80
2022-11-15T17:48:53.123Z,38.17
2022-11-15T17:51:20.543Z,41.13
2022-11-15T17:53:49.156Z,41.47
2022-11-15T17:56:20.135Z,41.47
2022-11-15T17:58:51.711Z,44.30
2022-11-15T18:01:20.972Z,44.20
2022-11-15T18:03:49.000Z,43.70
2022-11-15T18:06:17.473Z,44.23
2022-11-15T18:08:46.617Z,34.83
2022-11-15T18:11:16.430Z,41.73
2022-11-15T18:13:52.065Z,41.47
2022-11-15T18:16:21.888Z,37.53
2022-11-15T18:18:49.767Z,36.97
2022-11-15T18:21:20.075Z,35.33
2022-11-15T18:23:48.524Z,42.93
2022-11-15T18:26:19.444Z,45.53
2022-11-15T18:28:50.686Z,42.90
2022-11-15T18:31:19.744Z,44.77
2022-11-15T18:33:47.252Z,43.27
2022-11-15T18:36:16.571Z,42.40
2022-11-15T18:38:44.283Z,44.57
2022-11-15T18:41:14.789Z,45.33
2022-11-15T18:43:42.272Z,45.33
2022-11-15T18:46:13.123Z,45.97
2022-11-15T18:48:42.426Z,43.80
2022-11-15T18:51:12.004Z,44.03
2022-11-15T18:53:40.883Z,44.37
2022-11-15T18:56:10.008Z,46.70
2022-11-15T18:58:39.229Z,48.43
2022-11-15T19:01:08.343Z,46.43
2022-11-15T19:03:39.914Z,46.70
2022-11-15T19:06:10.025Z,44.77
2022-11-15T19:08:38.202Z,46.93
2022-11-15T19:11:06.863Z,45.70
2022-11-15T19:13:35.482Z,45.70
2022-11-15T19:16:04.715Z,44.10
2022-11-15T19:18:33.746Z,46.93
2022-11-15T19:21:05.679Z,43.80
2022-11-15T19:23:34.790Z,47.73
2022-11-15T19:26:04.008Z,44.80
2022-11-15T19:28:32.206Z,46.50
2022-11-15T19:31:05.359Z,48.63
2022-11-15T19:33:33.932Z,50.13
2022-11-15T19:36:02.423Z,49.30
2022-11-15T19:38:33.054Z,50.37
2022-11-15T19:41:00.612Z,54.97
2022-11-15T19:43:28.915Z,51.87
2022-11-15T19:46:02.093Z,51.80
2022-11-15T19:48:31.680Z,51.70
2022-11-15T19:51:01.606Z,52.27
2022-11-15T19:53:34.622Z,51.97
2022-11-15T19:56:06.990Z,58.47
2022-11-15T19:58:34.791Z,56.30
2022-11-15T20:01:03.353Z,57.63
2022-11-15T20:03:32.611Z,62.67
2022-11-15T20:06:04.075Z,53.27
2022-11-15T20:08:31.960Z,54.93
2022-11-15T20:11:00.223Z,58.97
2022-11-15T20:13:29.075Z,55.97
2022-11-15T20:15:57.457Z,60.03
2022-11-15T20:18:25.797Z,56.33
2022-11-15T20:20:55.317Z,57.50
2022-11-15T20:23:23.197Z,53.77
2022-11-15T20:25:50.750Z,52.27
2022-11-15T20:28:20.017Z,55.00
2022-11-15T20:30:49.876Z,56.67
2022-11-15T20:33:17.828Z,52.70
2022-11-15T20:35:45.278Z,57.77
2022-11-15T20:38:13.208Z,56.27
2022-11-15T20:40:41.157Z,52.43
2022-11-15T20:43:13.039Z,52.13
2022-11-15T20:45:40.661Z,48.17
2022-11-15T20:48:10.787Z,54.80
2022-11-15T20:50:43.126Z,47.97
2022-11-15T20:53:12.655Z,55.83
2022-11-15T20:55:41.984Z,41.90
2022-11-15T20:58:10.038Z,51.93
2022-11-15T21:00:37.773Z,48.93
2022-11-15T21:03:06.881Z,54.17
2022-11-15T21:05:36.405Z,53.10
2022-11-15T21:08:03.826Z,49.17
2022-11-15T21:10:48.661Z,48.80
2022-11-15T21:13:16.060Z,48.30
2022-11-15T21:15:43.540Z,48.87
2022-11-15T21:18:11.132Z,48.70
2022-11-15T21:20:39.863Z,47.83
2022-11-15T21:23:07.264Z,46.30
2022-11-15T21:25:35.312Z,48.63
2022-11-15T21:28:02.834Z,50.60
2022-11-15T21:30:30.407Z,47.57
2022-11-15T21:32:57.843Z,50.97
2022-11-15T21:35:25.336Z,50.27
2022-11-15T21:37:56.943Z,48.97
2022-11-15T21:40:24.565Z,49.83
2022-11-15T21:42:52.100Z,49.73
2022-11-15T21:45:19.481Z,52.83
2022-11-15T21:47:47.011Z,57.47
2022-11-15T21:50:14.693Z,44.73
2022-11-15T21:52:42.249Z,49.53
2022-11-15T21:55:11.304Z,48.30
2022-11-15T21:57:38.703Z,49.60
2022-11-15T22:00:24.348Z,53.73
2022-11-15T22:02:51.753Z,50.33
2022-11-15T22:05:19.197Z,47.07
2022-11-15T22:07:46.770Z,48.37
2022-11-15T22:10:15.488Z,52.03
2022-11-15T22:12:42.864Z,48.33
2022-11-15T22:15:10.782Z,51.13
2022-11-15T22:17:55.508Z,43.03
2022-11-15T22:20:43.518Z,49.63
2022-11-15T22:23:10.306Z,51.03
2022-11-15T22:25:39.043Z,45.43
2022-11-15T22:28:06.441Z,52.17
2022-11-15T22:30:33.835Z,51.20
2022-11-15T22:33:01.245Z,48.93
2022-11-15T22:35:28.675Z,48.97
2022-11-15T22:37:56.046Z,49.67
2022-11-15T22:40:23.444Z,52.43
2022-11-15T22:42:52.180Z,48.57
2022-11-15T22:45:19.646Z,51.43
2022-11-15T22:47:47.070Z,45.40
2022-11-15T22:50:14.620Z,45.80
2022-11-15T22:52:42.079Z,47.40
2022-11-15T22:55:10.374Z,54.53
2022-11-15T22:57:38.331Z,47.23
2022-11-15T23:00:10.302Z,49.67
2022-11-15T23:02:37.789Z,45.50
2022-11-15T23:05:06.889Z,46.27
2022-11-15T23:07:34.787Z,45.53
2022-11-15T23:10:26.367Z,48.23
2022-11-15T23:13:11.438Z,44.60
2022-11-15T23:16:03.267Z,48.80
2022-11-15T23:18:33.699Z,48.23
2022-11-15T23:21:08.353Z,50.07
2022-11-15T23:23:35.365Z,50.37
2022-11-15T23:26:02.773Z,51.03
2022-11-15T23:28:30.307Z,59.83
2022-11-15T23:31:22.658Z,55.63
2022-11-15T23:33:58.894Z,50.57
2022-11-15T23:36:27.213Z,53.83
2022-11-15T23:38:54.670Z,51.83
2022-11-15T23:41:23.724Z,58.90
2022-11-15T23:43:51.277Z,48.20
2022-11-15T23:46:20.247Z,52.80
2022-11-15T23:48:48.403Z,51.07
2022-11-15T23:51:15.852Z,51.07
2022-11-15T23:53:43.586Z,53.43
2022-11-15T23:56:13.473Z,51.93
2022-11-15T23:58:41.046Z,55.27
